sensor_id;sensor_type;location;lat;lon;timestamp;temperature;humidity
3504;DHT22;1766;53.490;10.174;2023-02-24T00:01:47;11.80;38.80
3504;DHT22;1766;53.490;10.174;2023-02-24T00:03:51;11.70;38.80
3504;DHT22;1766;53.490;10.174;2023-02-24T00:05:57;11.80;39.00
3504;DHT22;1766;53.490;10.174;2023-02-24T00:08:00;11.90;39.10
3504;DHT22;1766;53.490;10.174;2023-02-24T00:10:02;11.80;39.00
3504;DHT22;1766;53.490;10.174;2023-02-24T00:12:06;11.70;39.00
3504;DHT22;1766;53.490;10.174;2023-02-24T00:14:10;11.80;39.20
3504;DHT22;1766;53.490;10.174;2023-02-24T00:16:15;11.70;39.30
3504;DHT22;1766;53.490;10.174;2023-02-24T00:18:18;11.70;39.30
3504;DHT22;1766;53.490;10.174;2023-02-24T00:20:20;11.70;39.20
3504;DHT22;1766;53.490;10.174;2023-02-24T00:22:22;11.70;39.30
3504;DHT22;1766;53.490;10.174;2023-02-24T00:24:25;11.70;39.40
3504;DHT22;1766;53.490;10.174;2023-02-24T00:26:27;11.60;39.40
3504;DHT22;1766;53.490;10.174;2023-02-24T00:28:30;11.60;39.40
3504;DHT22;1766;53.490;10.174;2023-02-24T00:30:31;11.70;39.50
3504;DHT22;1766;53.490;10.174;2023-02-24T00:32:33;11.60;39.50
3504;DHT22;1766;53.490;10.174;2023-02-24T00:34:36;11.60;39.60
3504;DHT22;1766;53.490;10.174;2023-02-24T00:36:39;11.60;39.80
3504;DHT22;1766;53.490;10.174;2023-02-24T00:38:42;11.50;39.70
3504;DHT22;1766;53.490;10.174;2023-02-24T00:40:47;11.50;39.80
3504;DHT22;1766;53.490;10.174;2023-02-24T00:42:49;11.50;39.90
3504;DHT22;1766;53.490;10.174;2023-02-24T00:44:53;11.50;40.00
3504;DHT22;1766;53.490;10.174;2023-02-24T00:46:55;11.40;39.90
3504;DHT22;1766;53.490;10.174;2023-02-24T00:48:57;11.50;40.00
3504;DHT22;1766;53.490;10.174;2023-02-24T00:51:00;11.50;40.10
3504;DHT22;1766;53.490;10.174;2023-02-24T00:53:01;12.10;40.50
3504;DHT22;1766;53.490;10.174;2023-02-24T00:55:03;11.40;40.00
3504;DHT22;1766;53.490;10.174;2023-02-24T00:57:20;11.50;40.10
3504;DHT22;1766;53.490;10.174;2023-02-24T00:59:22;11.40;40.00
3504;DHT22;1766;53.490;10.174;2023-02-24T01:01:27;11.50;40.20
3504;DHT22;1766;53.490;10.174;2023-02-24T01:03:31;11.40;40.20
3504;DHT22;1766;53.490;10.174;2023-02-24T01:05:35;11.50;40.20
3504;DHT22;1766;53.490;10.174;2023-02-24T01:07:37;11.50;40.30
3504;DHT22;1766;53.490;10.174;2023-02-24T01:09:40;11.50;40.10
3504;DHT22;1766;53.490;10.174;2023-02-24T01:11:45;11.50;40.10
3504;DHT22;1766;53.490;10.174;2023-02-24T01:14:04;11.60;40.20
3504;DHT22;1766;53.490;10.174;2023-02-24T01:16:08;11.50;40.10
3504;DHT22;1766;53.490;10.174;2023-02-24T01:18:09;11.50;40.00
3504;DHT22;1766;53.490;10.174;2023-02-24T01:20:12;11.50;40.00
3504;DHT22;1766;53.490;10.174;2023-02-24T01:22:19;11.40;40.10
3504;DHT22;1766;53.490;10.174;2023-02-24T01:24:21;11.50;40.10
3504;DHT22;1766;53.490;10.174;2023-02-24T01:26:24;11.50;40.10
3504;DHT22;1766;53.490;10.174;2023-02-24T01:28:26;11.50;40.10
3504;DHT22;1766;53.490;10.174;2023-02-24T01:30:29;11.50;40.00
3504;DHT22;1766;53.490;10.174;2023-02-24T01:32:31;11.50;40.00
3504;DHT22;1766;53.490;10.174;2023-02-24T01:34:33;11.50;39.90
3504;DHT22;1766;53.490;10.174;2023-02-24T01:36:35;11.50;40.00
3504;DHT22;1766;53.490;10.174;2023-02-24T01:38:38;11.50;40.00
3504;DHT22;1766;53.490;10.174;2023-02-24T01:40:42;11.50;40.00
3504;DHT22;1766;53.490;10.174;2023-02-24T01:42:44;11.50;39.90
3504;DHT22;1766;53.490;10.174;2023-02-24T01:45:09;11.50;40.00
3504;DHT22;1766;53.490;10.174;2023-02-24T01:47:16;11.50;40.00
3504;DHT22;1766;53.490;10.174;2023-02-24T01:49:22;11.60;39.90
3504;DHT22;1766;53.490;10.174;2023-02-24T01:51:30;11.60;39.90
3504;DHT22;1766;53.490;10.174;2023-02-24T01:53:35;11.60;39.70
3504;DHT22;1766;53.490;10.174;2023-02-24T01:55:41;11.60;39.70
3504;DHT22;1766;53.490;10.174;2023-02-24T01:57:48;11.50;39.70
3504;DHT22;1766;53.490;10.174;2023-02-24T01:59:52;11.60;39.80
3504;DHT22;1766;53.490;10.174;2023-02-24T02:01:59;11.60;39.70
3504;DHT22;1766;53.490;10.174;2023-02-24T02:04:13;11.60;39.70
3504;DHT22;1766;53.490;10.174;2023-02-24T02:06:17;11.70;39.70
3504;DHT22;1766;53.490;10.174;2023-02-24T02:08:20;11.70;39.60
3504;DHT22;1766;53.490;10.174;2023-02-24T02:10:24;11.60;39.60
3504;DHT22;1766;53.490;10.174;2023-02-24T02:12:37;11.60;39.60
3504;DHT22;1766;53.490;10.174;2023-02-24T02:14:46;11.50;39.50
3504;DHT22;1766;53.490;10.174;2023-02-24T02:16:59;11.60;39.70
3504;DHT22;1766;53.490;10.174;2023-02-24T02:19:25;11.60;39.60
3504;DHT22;1766;53.490;10.174;2023-02-24T02:21:53;11.60;39.70
3504;DHT22;1766;53.490;10.174;2023-02-24T02:24:29;11.50;39.50
3504;DHT22;1766;53.490;10.174;2023-02-24T02:26:52;11.50;39.50
3504;DHT22;1766;53.490;10.174;2023-02-24T02:29:32;11.60;39.60
3504;DHT22;1766;53.490;10.174;2023-02-24T02:34:32;11.50;39.50
3504;DHT22;1766;53.490;10.174;2023-02-24T02:36:51;11.50;39.60
3504;DHT22;1766;53.490;10.174;2023-02-24T02:39:05;11.60;39.60
3504;DHT22;1766;53.490;10.174;2023-02-24T02:41:18;11.50;39.60
3504;DHT22;1766;53.490;10.174;2023-02-24T02:43:27;11.50;39.60
3504;DHT22;1766;53.490;10.174;2023-02-24T02:45:37;11.40;39.60
3504;DHT22;1766;53.490;10.174;2023-02-24T02:47:43;11.50;39.80
3504;DHT22;1766;53.490;10.174;2023-02-24T02:49:59;11.30;39.70
3504;DHT22;1766;53.490;10.174;2023-02-24T02:52:11;11.40;39.80
3504;DHT22;1766;53.490;10.174;2023-02-24T02:54:17;11.40;39.80
3504;DHT22;1766;53.490;10.174;2023-02-24T02:56:25;11.40;39.70
3504;DHT22;1766;53.490;10.174;2023-02-24T02:58:36;11.40;39.70
3504;DHT22;1766;53.490;10.174;2023-02-24T03:00:42;11.40;39.70
3504;DHT22;1766;53.490;10.174;2023-02-24T03:02:53;11.40;39.60
3504;DHT22;1766;53.490;10.174;2023-02-24T03:05:00;10.00;38.30
3504;DHT22;1766;53.490;10.174;2023-02-24T03:07:10;11.30;39.10
3504;DHT22;1766;53.490;10.174;2023-02-24T03:09:18;11.30;39.60
3504;DHT22;1766;53.490;10.174;2023-02-24T03:11:22;11.30;39.70
3504;DHT22;1766;53.490;10.174;2023-02-24T03:13:24;11.30;39.70
3504;DHT22;1766;53.490;10.174;2023-02-24T03:15:30;11.20;39.60
3504;DHT22;1766;53.490;10.174;2023-02-24T03:17:37;11.30;39.70
3504;DHT22;1766;53.490;10.174;2023-02-24T03:19:41;11.30;39.70
3504;DHT22;1766;53.490;10.174;2023-02-24T03:21:49;11.30;39.70
3504;DHT22;1766;53.490;10.174;2023-02-24T03:23:54;11.30;39.70
3504;DHT22;1766;53.490;10.174;2023-02-24T03:26:01;11.30;39.70
3504;DHT22;1766;53.490;10.174;2023-02-24T03:28:12;11.30;39.70
3504;DHT22;1766;53.490;10.174;2023-02-24T03:30:20;11.30;39.70
3504;DHT22;1766;53.490;10.174;2023-02-24T03:32:28;11.30;39.60
3504;DHT22;1766;53.490;10.174;2023-02-24T03:34:40;11.30;39.60
3504;DHT22;1766;53.490;10.174;2023-02-24T03:36:47;11.40;40.20
3504;DHT22;1766;53.490;10.174;2023-02-24T03:38:49;11.30;39.20
3504;DHT22;1766;53.490;10.174;2023-02-24T03:40:51;11.30;39.40
3504;DHT22;1766;53.490;10.174;2023-02-24T03:42:57;11.30;39.30
3504;DHT22;1766;53.490;10.174;2023-02-24T03:45:05;11.30;39.60
3504;DHT22;1766;53.490;10.174;2023-02-24T03:47:08;11.40;39.60
3504;DHT22;1766;53.490;10.174;2023-02-24T03:49:13;11.40;39.40
3504;DHT22;1766;53.490;10.174;2023-02-24T03:51:17;11.40;39.50
3504;DHT22;1766;53.490;10.174;2023-02-24T03:53:36;11.40;39.40
3504;DHT22;1766;53.490;10.174;2023-02-24T03:55:52;11.30;39.40
3504;DHT22;1766;53.490;10.174;2023-02-24T03:58:09;11.20;39.30
3504;DHT22;1766;53.490;10.174;2023-02-24T04:00:21;11.30;39.40
3504;DHT22;1766;53.490;10.174;2023-02-24T04:02:30;11.40;39.40
3504;DHT22;1766;53.490;10.174;2023-02-24T04:04:38;11.40;39.30
3504;DHT22;1766;53.490;10.174;2023-02-24T04:06:45;11.40;39.30
3504;DHT22;1766;53.490;10.174;2023-02-24T04:08:58;11.30;39.10
3504;DHT22;1766;53.490;10.174;2023-02-24T04:11:10;11.30;39.20
3504;DHT22;1766;53.490;10.174;2023-02-24T04:13:20;11.30;39.20
3504;DHT22;1766;53.490;10.174;2023-02-24T04:15:30;11.30;39.10
3504;DHT22;1766;53.490;10.174;2023-02-24T04:17:39;11.40;39.20
3504;DHT22;1766;53.490;10.174;2023-02-24T04:19:44;11.30;39.10
3504;DHT22;1766;53.490;10.174;2023-02-24T04:21:49;11.30;39.00
3504;DHT22;1766;53.490;10.174;2023-02-24T04:23:52;11.30;39.00
3504;DHT22;1766;53.490;10.174;2023-02-24T04:25:55;11.30;39.10
3504;DHT22;1766;53.490;10.174;2023-02-24T04:27:58;11.30;38.90
3504;DHT22;1766;53.490;10.174;2023-02-24T04:30:02;11.30;39.10
3504;DHT22;1766;53.490;10.174;2023-02-24T04:32:08;11.30;39.00
3504;DHT22;1766;53.490;10.174;2023-02-24T04:34:10;11.20;39.00
3504;DHT22;1766;53.490;10.174;2023-02-24T04:36:20;11.20;38.80
3504;DHT22;1766;53.490;10.174;2023-02-24T04:38:22;11.30;39.00
3504;DHT22;1766;53.490;10.174;2023-02-24T04:40:25;11.20;38.80
3504;DHT22;1766;53.490;10.174;2023-02-24T04:42:36;11.20;38.90
3504;DHT22;1766;53.490;10.174;2023-02-24T04:44:45;11.20;39.00
3504;DHT22;1766;53.490;10.174;2023-02-24T04:46:48;11.10;38.80
3504;DHT22;1766;53.490;10.174;2023-02-24T04:48:50;11.50;39.30
3504;DHT22;1766;53.490;10.174;2023-02-24T04:50:52;11.20;38.90
3504;DHT22;1766;53.490;10.174;2023-02-24T04:52:56;11.20;38.70
3504;DHT22;1766;53.490;10.174;2023-02-24T04:55:00;11.30;39.10
3504;DHT22;1766;53.490;10.174;2023-02-24T04:57:10;11.20;38.80
3504;DHT22;1766;53.490;10.174;2023-02-24T04:59:13;11.20;39.00
3504;DHT22;1766;53.490;10.174;2023-02-24T05:01:15;11.20;39.10
3504;DHT22;1766;53.490;10.174;2023-02-24T05:03:18;11.20;39.20
3504;DHT22;1766;53.490;10.174;2023-02-24T05:05:22;11.20;39.30
3504;DHT22;1766;53.490;10.174;2023-02-24T05:07:26;11.20;39.40
3504;DHT22;1766;53.490;10.174;2023-02-24T05:09:29;11.20;39.10
3504;DHT22;1766;53.490;10.174;2023-02-24T05:11:31;11.20;39.40
3504;DHT22;1766;53.490;10.174;2023-02-24T05:13:35;11.20;39.30
3504;DHT22;1766;53.490;10.174;2023-02-24T05:15:39;11.20;39.40
3504;DHT22;1766;53.490;10.174;2023-02-24T05:17:42;11.20;39.50
3504;DHT22;1766;53.490;10.174;2023-02-24T05:19:44;11.20;39.50
3504;DHT22;1766;53.490;10.174;2023-02-24T05:22:00;11.20;39.60
3504;DHT22;1766;53.490;10.174;2023-02-24T05:24:03;11.10;39.60
3504;DHT22;1766;53.490;10.174;2023-02-24T05:26:08;11.10;39.50
3504;DHT22;1766;53.490;10.174;2023-02-24T05:28:10;11.10;39.70
3504;DHT22;1766;53.490;10.174;2023-02-24T05:30:13;11.10;39.70
3504;DHT22;1766;53.490;10.174;2023-02-24T05:32:15;11.10;39.70
3504;DHT22;1766;53.490;10.174;2023-02-24T05:34:18;11.10;39.70
3504;DHT22;1766;53.490;10.174;2023-02-24T05:36:21;11.10;39.90
3504;DHT22;1766;53.490;10.174;2023-02-24T05:38:23;11.10;39.70
3504;DHT22;1766;53.490;10.174;2023-02-24T05:40:26;11.10;39.70
3504;DHT22;1766;53.490;10.174;2023-02-24T05:42:28;11.20;39.80
3504;DHT22;1766;53.490;10.174;2023-02-24T05:46:46;11.20;39.50
3504;DHT22;1766;53.490;10.174;2023-02-24T05:48:49;11.20;39.70
3504;DHT22;1766;53.490;10.174;2023-02-24T05:50:51;11.10;39.30
3504;DHT22;1766;53.490;10.174;2023-02-24T05:52:54;11.10;39.90
3504;DHT22;1766;53.490;10.174;2023-02-24T05:54:56;11.10;40.00
3504;DHT22;1766;53.490;10.174;2023-02-24T05:57:01;11.10;39.90
3504;DHT22;1766;53.490;10.174;2023-02-24T05:59:06;11.10;40.20
3504;DHT22;1766;53.490;10.174;2023-02-24T06:01:10;11.10;40.20
3504;DHT22;1766;53.490;10.174;2023-02-24T06:03:17;11.10;40.30
3504;DHT22;1766;53.490;10.174;2023-02-24T06:05:30;11.10;40.20
3504;DHT22;1766;53.490;10.174;2023-02-24T06:07:32;11.20;40.20
3504;DHT22;1766;53.490;10.174;2023-02-24T06:09:35;11.20;40.20
3504;DHT22;1766;53.490;10.174;2023-02-24T06:11:40;11.20;40.10
3504;DHT22;1766;53.490;10.174;2023-02-24T06:13:45;10.60;39.60
3504;DHT22;1766;53.490;10.174;2023-02-24T06:15:54;11.20;40.20
3504;DHT22;1766;53.490;10.174;2023-02-24T06:17:56;11.20;40.30
3504;DHT22;1766;53.490;10.174;2023-02-24T06:20:01;11.20;39.90
3504;DHT22;1766;53.490;10.174;2023-02-24T06:22:14;11.30;40.10
3504;DHT22;1766;53.490;10.174;2023-02-24T06:24:17;11.20;40.30
3504;DHT22;1766;53.490;10.174;2023-02-24T06:26:19;11.20;39.90
3504;DHT22;1766;53.490;10.174;2023-02-24T06:28:21;11.20;40.20
3504;DHT22;1766;53.490;10.174;2023-02-24T06:30:23;11.10;40.30
3504;DHT22;1766;53.490;10.174;2023-02-24T06:32:26;11.10;40.50
3504;DHT22;1766;53.490;10.174;2023-02-24T06:34:28;11.10;40.30
3504;DHT22;1766;53.490;10.174;2023-02-24T06:36:32;11.30;40.50
3504;DHT22;1766;53.490;10.174;2023-02-24T06:38:35;11.10;40.50
3504;DHT22;1766;53.490;10.174;2023-02-24T06:40:39;11.10;40.50
3504;DHT22;1766;53.490;10.174;2023-02-24T06:42:45;11.10;40.60
3504;DHT22;1766;53.490;10.174;2023-02-24T06:44:48;11.00;40.70
3504;DHT22;1766;53.490;10.174;2023-02-24T06:46:50;11.00;40.50
3504;DHT22;1766;53.490;10.174;2023-02-24T06:48:54;10.90;40.60
3504;DHT22;1766;53.490;10.174;2023-02-24T06:50:57;10.60;40.00
3504;DHT22;1766;53.490;10.174;2023-02-24T06:53:01;10.80;40.60
3504;DHT22;1766;53.490;10.174;2023-02-24T06:55:03;10.80;41.00
3504;DHT22;1766;53.490;10.174;2023-02-24T06:57:05;10.70;41.30
3504;DHT22;1766;53.490;10.174;2023-02-24T06:59:09;10.60;41.60
3504;DHT22;1766;53.490;10.174;2023-02-24T07:01:18;10.60;41.70
3504;DHT22;1766;53.490;10.174;2023-02-24T07:03:26;10.50;41.80
3504;DHT22;1766;53.490;10.174;2023-02-24T07:05:39;10.40;41.80
3504;DHT22;1766;53.490;10.174;2023-02-24T07:07:43;10.40;42.10
3504;DHT22;1766;53.490;10.174;2023-02-24T07:09:49;10.30;42.00
3504;DHT22;1766;53.490;10.174;2023-02-24T07:11:56;10.20;42.30
3504;DHT22;1766;53.490;10.174;2023-02-24T07:14:02;10.20;42.20
3504;DHT22;1766;53.490;10.174;2023-02-24T07:16:05;9.90;43.30
3504;DHT22;1766;53.490;10.174;2023-02-24T07:18:11;10.10;42.70
3504;DHT22;1766;53.490;10.174;2023-02-24T07:20:14;10.00;42.40
3504;DHT22;1766;53.490;10.174;2023-02-24T07:22:24;9.90;43.40
3504;DHT22;1766;53.490;10.174;2023-02-24T07:24:27;9.90;43.60
3504;DHT22;1766;53.490;10.174;2023-02-24T07:26:36;9.90;44.00
3504;DHT22;1766;53.490;10.174;2023-02-24T07:28:42;9.80;44.00
3504;DHT22;1766;53.490;10.174;2023-02-24T07:30:44;9.80;44.10
3504;DHT22;1766;53.490;10.174;2023-02-24T07:32:46;9.90;44.00
3504;DHT22;1766;53.490;10.174;2023-02-24T07:34:48;9.80;44.10
3504;DHT22;1766;53.490;10.174;2023-02-24T07:36:50;9.80;44.10
3504;DHT22;1766;53.490;10.174;2023-02-24T07:38:53;9.80;44.30
3504;DHT22;1766;53.490;10.174;2023-02-24T07:40:56;9.70;44.20
3504;DHT22;1766;53.490;10.174;2023-02-24T07:43:00;9.70;44.30
3504;DHT22;1766;53.490;10.174;2023-02-24T07:45:05;9.70;44.40
3504;DHT22;1766;53.490;10.174;2023-02-24T07:47:08;9.60;44.50
3504;DHT22;1766;53.490;10.174;2023-02-24T07:49:12;9.70;44.50
3504;DHT22;1766;53.490;10.174;2023-02-24T07:51:16;9.70;44.80
3504;DHT22;1766;53.490;10.174;2023-02-24T07:53:20;9.70;44.40
3504;DHT22;1766;53.490;10.174;2023-02-24T07:55:22;9.60;44.60
3504;DHT22;1766;53.490;10.174;2023-02-24T07:57:30;9.70;44.20
3504;DHT22;1766;53.490;10.174;2023-02-24T07:59:34;9.70;44.30
3504;DHT22;1766;53.490;10.174;2023-02-24T08:01:38;9.70;44.50
3504;DHT22;1766;53.490;10.174;2023-02-24T08:03:40;9.70;44.50
3504;DHT22;1766;53.490;10.174;2023-02-24T08:05:41;9.70;44.70
3504;DHT22;1766;53.490;10.174;2023-02-24T08:07:44;9.70;44.80
3504;DHT22;1766;53.490;10.174;2023-02-24T08:09:49;9.60;45.00
3504;DHT22;1766;53.490;10.174;2023-02-24T08:12:05;9.60;45.00
3504;DHT22;1766;53.490;10.174;2023-02-24T08:14:07;9.60;45.00
3504;DHT22;1766;53.490;10.174;2023-02-24T08:16:14;9.60;44.80
3504;DHT22;1766;53.490;10.174;2023-02-24T08:18:16;9.50;45.00
3504;DHT22;1766;53.490;10.174;2023-02-24T08:20:20;9.50;45.10
3504;DHT22;1766;53.490;10.174;2023-02-24T08:22:22;9.50;45.50
3504;DHT22;1766;53.490;10.174;2023-02-24T08:24:24;9.50;45.50
3504;DHT22;1766;53.490;10.174;2023-02-24T08:26:29;9.40;45.40
3504;DHT22;1766;53.490;10.174;2023-02-24T08:28:31;9.40;45.50
3504;DHT22;1766;53.490;10.174;2023-02-24T08:30:35;9.40;45.50
3504;DHT22;1766;53.490;10.174;2023-02-24T08:32:42;9.40;45.80
3504;DHT22;1766;53.490;10.174;2023-02-24T08:34:44;9.40;45.80
3504;DHT22;1766;53.490;10.174;2023-02-24T08:36:50;9.40;45.60
3504;DHT22;1766;53.490;10.174;2023-02-24T08:38:55;9.40;45.80
3504;DHT22;1766;53.490;10.174;2023-02-24T08:40:59;9.40;45.70
3504;DHT22;1766;53.490;10.174;2023-02-24T08:43:07;9.40;45.80
3504;DHT22;1766;53.490;10.174;2023-02-24T08:45:18;9.40;46.20
3504;DHT22;1766;53.490;10.174;2023-02-24T08:47:20;9.50;46.20
3504;DHT22;1766;53.490;10.174;2023-02-24T08:49:31;9.40;46.10
3504;DHT22;1766;53.490;10.174;2023-02-24T08:51:35;9.40;46.20
3504;DHT22;1766;53.490;10.174;2023-02-24T08:53:44;9.30;46.20
3504;DHT22;1766;53.490;10.174;2023-02-24T08:55:47;9.40;46.30
3504;DHT22;1766;53.490;10.174;2023-02-24T08:57:51;9.40;46.20
3504;DHT22;1766;53.490;10.174;2023-02-24T08:59:55;9.40;46.30
3504;DHT22;1766;53.490;10.174;2023-02-24T09:01:59;9.40;46.40
3504;DHT22;1766;53.490;10.174;2023-02-24T09:04:17;9.40;46.60
3504;DHT22;1766;53.490;10.174;2023-02-24T09:06:24;9.50;46.50
3504;DHT22;1766;53.490;10.174;2023-02-24T09:08:39;9.40;46.70
3504;DHT22;1766;53.490;10.174;2023-02-24T09:10:41;8.40;45.80
3504;DHT22;1766;53.490;10.174;2023-02-24T09:12:46;9.50;46.60
3504;DHT22;1766;53.490;10.174;2023-02-24T09:14:49;9.50;46.70
3504;DHT22;1766;53.490;10.174;2023-02-24T09:16:56;9.40;46.70
3504;DHT22;1766;53.490;10.174;2023-02-24T09:19:10;9.50;46.80
3504;DHT22;1766;53.490;10.174;2023-02-24T09:21:39;9.50;46.10
3504;DHT22;1766;53.490;10.174;2023-02-24T09:23:55;9.40;46.70
3504;DHT22;1766;53.490;10.174;2023-02-24T09:25:59;9.50;46.90
3504;DHT22;1766;53.490;10.174;2023-02-24T09:28:12;9.60;47.00
3504;DHT22;1766;53.490;10.174;2023-02-24T09:30:19;9.60;47.20
3504;DHT22;1766;53.490;10.174;2023-02-24T09:32:36;9.60;47.30
3504;DHT22;1766;53.490;10.174;2023-02-24T09:34:40;9.70;47.10
3504;DHT22;1766;53.490;10.174;2023-02-24T09:36:46;9.70;47.00
3504;DHT22;1766;53.490;10.174;2023-02-24T09:39:02;9.70;47.20
3504;DHT22;1766;53.490;10.174;2023-02-24T09:41:22;9.70;47.20
3504;DHT22;1766;53.490;10.174;2023-02-24T09:43:35;9.10;46.90
3504;DHT22;1766;53.490;10.174;2023-02-24T09:45:49;9.70;47.30
3504;DHT22;1766;53.490;10.174;2023-02-24T09:48:01;9.70;47.50
3504;DHT22;1766;53.490;10.174;2023-02-24T09:50:16;9.80;47.50
3504;DHT22;1766;53.490;10.174;2023-02-24T09:52:27;9.80;47.50
3504;DHT22;1766;53.490;10.174;2023-02-24T09:56:55;9.90;47.20
3504;DHT22;1766;53.490;10.174;2023-02-24T09:59:12;9.90;47.60
3504;DHT22;1766;53.490;10.174;2023-02-24T10:01:32;9.90;47.70
3504;DHT22;1766;53.490;10.174;2023-02-24T10:03:43;9.90;47.70
3504;DHT22;1766;53.490;10.174;2023-02-24T10:05:53;9.90;47.70
3504;DHT22;1766;53.490;10.174;2023-02-24T10:07:59;9.90;47.70
3504;DHT22;1766;53.490;10.174;2023-02-24T10:10:05;10.00;47.00
3504;DHT22;1766;53.490;10.174;2023-02-24T10:12:35;10.10;47.00
3504;DHT22;1766;53.490;10.174;2023-02-24T10:14:45;10.10;47.00
3504;DHT22;1766;53.490;10.174;2023-02-24T10:16:54;10.00;46.80
3504;DHT22;1766;53.490;10.174;2023-02-24T10:19:21;10.10;46.60
3504;DHT22;1766;53.490;10.174;2023-02-24T10:21:28;10.00;46.90
3504;DHT22;1766;53.490;10.174;2023-02-24T10:23:55;10.10;47.10
3504;DHT22;1766;53.490;10.174;2023-02-24T10:26:05;10.20;47.20
3504;DHT22;1766;53.490;10.174;2023-02-24T10:28:27;10.20;47.20
3504;DHT22;1766;53.490;10.174;2023-02-24T10:30:44;10.30;47.00
3504;DHT22;1766;53.490;10.174;2023-02-24T10:32:52;10.30;46.90
3504;DHT22;1766;53.490;10.174;2023-02-24T10:34:58;10.30;46.80
3504;DHT22;1766;53.490;10.174;2023-02-24T10:37:01;10.30;46.90
3504;DHT22;1766;53.490;10.174;2023-02-24T10:39:14;10.30;47.00
3504;DHT22;1766;53.490;10.174;2023-02-24T10:41:19;10.30;47.00
3504;DHT22;1766;53.490;10.174;2023-02-24T10:43:28;10.30;47.00
3504;DHT22;1766;53.490;10.174;2023-02-24T10:45:38;10.40;46.70
3504;DHT22;1766;53.490;10.174;2023-02-24T10:47:49;10.40;46.90
3504;DHT22;1766;53.490;10.174;2023-02-24T10:49:57;10.40;46.90
3504;DHT22;1766;53.490;10.174;2023-02-24T10:52:00;10.40;47.00
3504;DHT22;1766;53.490;10.174;2023-02-24T10:54:13;10.40;47.10
3504;DHT22;1766;53.490;10.174;2023-02-24T10:56:33;10.40;47.40
3504;DHT22;1766;53.490;10.174;2023-02-24T10:58:44;11.50;48.00
3504;DHT22;1766;53.490;10.174;2023-02-24T11:01:10;10.50;46.70
3504;DHT22;1766;53.490;10.174;2023-02-24T11:03:17;10.50;47.30
3504;DHT22;1766;53.490;10.174;2023-02-24T11:05:36;10.50;47.30
3504;DHT22;1766;53.490;10.174;2023-02-24T11:07:43;10.50;47.30
3504;DHT22;1766;53.490;10.174;2023-02-24T11:10:04;10.50;47.50
3504;DHT22;1766;53.490;10.174;2023-02-24T11:12:26;10.60;47.50
3504;DHT22;1766;53.490;10.174;2023-02-24T11:14:48;10.70;47.40
3504;DHT22;1766;53.490;10.174;2023-02-24T11:17:19;10.50;47.40
3504;DHT22;1766;53.490;10.174;2023-02-24T11:19:27;10.60;47.50
3504;DHT22;1766;53.490;10.174;2023-02-24T11:21:30;10.70;47.60
3504;DHT22;1766;53.490;10.174;2023-02-24T11:23:36;10.70;47.50
3504;DHT22;1766;53.490;10.174;2023-02-24T11:25:42;10.70;47.60
3504;DHT22;1766;53.490;10.174;2023-02-24T11:27:48;10.80;47.80
3504;DHT22;1766;53.490;10.174;2023-02-24T11:30:04;10.80;47.90
3504;DHT22;1766;53.490;10.174;2023-02-24T11:32:31;11.10;48.50
3504;DHT22;1766;53.490;10.174;2023-02-24T11:34:44;11.10;48.40
3504;DHT22;1766;53.490;10.174;2023-02-24T11:36:56;11.20;48.30
3504;DHT22;1766;53.490;10.174;2023-02-24T11:39:10;11.40;48.50
3504;DHT22;1766;53.490;10.174;2023-02-24T11:41:26;11.50;48.20
3504;DHT22;1766;53.490;10.174;2023-02-24T11:43:33;11.50;47.90
3504;DHT22;1766;53.490;10.174;2023-02-24T11:45:40;11.50;47.90
3504;DHT22;1766;53.490;10.174;2023-02-24T11:47:48;11.60;48.10
3504;DHT22;1766;53.490;10.174;2023-02-24T11:50:02;11.60;48.10
3504;DHT22;1766;53.490;10.174;2023-02-24T11:52:11;11.70;48.10
3504;DHT22;1766;53.490;10.174;2023-02-24T11:54:17;11.70;47.80
3504;DHT22;1766;53.490;10.174;2023-02-24T11:56:24;11.60;48.00
3504;DHT22;1766;53.490;10.174;2023-02-24T11:58:34;11.60;47.80
3504;DHT22;1766;53.490;10.174;2023-02-24T12:00:47;11.60;47.70
3504;DHT22;1766;53.490;10.174;2023-02-24T12:02:58;11.50;47.70
3504;DHT22;1766;53.490;10.174;2023-02-24T12:05:07;11.60;47.70
3504;DHT22;1766;53.490;10.174;2023-02-24T12:07:19;11.60;47.70
3504;DHT22;1766;53.490;10.174;2023-02-24T12:09:26;11.60;47.90
3504;DHT22;1766;53.490;10.174;2023-02-24T12:11:38;11.60;47.80
3504;DHT22;1766;53.490;10.174;2023-02-24T12:13:48;11.70;47.90
3504;DHT22;1766;53.490;10.174;2023-02-24T12:15:57;11.70;47.90
3504;DHT22;1766;53.490;10.174;2023-02-24T12:18:12;11.80;47.90
3504;DHT22;1766;53.490;10.174;2023-02-24T12:20:20;11.80;47.90
3504;DHT22;1766;53.490;10.174;2023-02-24T12:22:29;11.80;47.90
3504;DHT22;1766;53.490;10.174;2023-02-24T12:24:46;11.90;48.00
3504;DHT22;1766;53.490;10.174;2023-02-24T12:27:01;11.90;47.70
3504;DHT22;1766;53.490;10.174;2023-02-24T12:29:15;12.00;47.90
3504;DHT22;1766;53.490;10.174;2023-02-24T12:31:33;11.90;47.70
3504;DHT22;1766;53.490;10.174;2023-02-24T12:33:47;12.00;47.90
3504;DHT22;1766;53.490;10.174;2023-02-24T12:36:01;12.00;48.00
3504;DHT22;1766;53.490;10.174;2023-02-24T12:38:17;12.10;48.10
3504;DHT22;1766;53.490;10.174;2023-02-24T12:40:38;12.10;47.90
3504;DHT22;1766;53.490;10.174;2023-02-24T12:42:51;12.20;48.00
3504;DHT22;1766;53.490;10.174;2023-02-24T12:45:03;12.20;47.90
3504;DHT22;1766;53.490;10.174;2023-02-24T12:47:15;12.20;47.90
3504;DHT22;1766;53.490;10.174;2023-02-24T12:49:29;12.10;47.90
3504;DHT22;1766;53.490;10.174;2023-02-24T12:51:42;12.20;48.10
3504;DHT22;1766;53.490;10.174;2023-02-24T12:53:57;12.30;48.20
3504;DHT22;1766;53.490;10.174;2023-02-24T12:56:07;12.40;48.10
3504;DHT22;1766;53.490;10.174;2023-02-24T12:58:18;12.40;48.10
3504;DHT22;1766;53.490;10.174;2023-02-24T13:00:23;12.40;48.00
3504;DHT22;1766;53.490;10.174;2023-02-24T13:02:38;12.40;48.00
3504;DHT22;1766;53.490;10.174;2023-02-24T13:04:54;12.30;47.90
3504;DHT22;1766;53.490;10.174;2023-02-24T13:07:08;12.30;47.90
3504;DHT22;1766;53.490;10.174;2023-02-24T13:09:23;12.30;47.90
3504;DHT22;1766;53.490;10.174;2023-02-24T13:11:38;12.20;47.90
3504;DHT22;1766;53.490;10.174;2023-02-24T13:13:46;12.30;47.90
3504;DHT22;1766;53.490;10.174;2023-02-24T13:15:54;13.20;48.60
3504;DHT22;1766;53.490;10.174;2023-02-24T13:17:57;12.40;48.10
3504;DHT22;1766;53.490;10.174;2023-02-24T13:20:10;12.50;48.10
3504;DHT22;1766;53.490;10.174;2023-02-24T13:22:21;12.50;48.00
3504;DHT22;1766;53.490;10.174;2023-02-24T13:24:26;12.60;48.80
3504;DHT22;1766;53.490;10.174;2023-02-24T13:26:29;12.70;48.60
3504;DHT22;1766;53.490;10.174;2023-02-24T13:28:35;13.00;49.60
3504;DHT22;1766;53.490;10.174;2023-02-24T13:30:40;13.70;50.00
3504;DHT22;1766;53.490;10.174;2023-02-24T13:32:45;14.30;49.30
3504;DHT22;1766;53.490;10.174;2023-02-24T13:34:48;14.50;48.20
3504;DHT22;1766;53.490;10.174;2023-02-24T13:36:51;14.60;47.80
3504;DHT22;1766;53.490;10.174;2023-02-24T13:39:04;14.50;47.40
3504;DHT22;1766;53.490;10.174;2023-02-24T13:43:40;14.30;47.60
3504;DHT22;1766;53.490;10.174;2023-02-24T13:45:53;14.30;47.20
3504;DHT22;1766;53.490;10.174;2023-02-24T13:48:14;14.10;47.20
3504;DHT22;1766;53.490;10.174;2023-02-24T13:50:24;13.80;46.80
3504;DHT22;1766;53.490;10.174;2023-02-24T13:52:40;13.70;47.10
3504;DHT22;1766;53.490;10.174;2023-02-24T13:57:39;13.50;47.20